createdAt,value
2019-03-25T00:01:48.293Z,50.40
2019-03-25T00:04:17.230Z,50.70
2019-03-25T00:06:46.079Z,50.90
2019-03-25T00:09:14.956Z,51.60
2019-03-25T00:11:44.017Z,51.10
2019-03-25T00:14:13.158Z,50.70
2019-03-25T00:16:42.021Z,50.20
2019-03-25T00:19:10.863Z,49.90
2019-03-25T00:21:39.731Z,50.00
2019-03-25T00:24:08.641Z,49.80
2019-03-25T00:26:37.472Z,49.60
2019-03-25T00:29:06.293Z,49.00
2019-03-25T00:31:35.259Z,49.30
2019-03-25T00:34:04.025Z,49.00
2019-03-25T00:36:32.778Z,49.20
2019-03-25T00:39:01.641Z,49.30
2019-03-25T00:41:30.736Z,49.80
2019-03-25T00:43:59.590Z,50.30
2019-03-25T00:46:28.430Z,50.10
2019-03-25T00:48:57.297Z,50.30
2019-03-25T00:51:26.131Z,50.30
2019-03-25T00:53:54.918Z,49.90
2019-03-25T00:56:23.742Z,49.80
2019-03-25T00:58:52.535Z,50.00
2019-03-25T01:01:21.347Z,50.50
2019-03-25T01:03:50.200Z,50.60
2019-03-25T01:06:19.050Z,50.90
2019-03-25T01:08:47.873Z,50.70
2019-03-25T01:11:16.719Z,50.10
2019-03-25T01:13:45.544Z,50.00
2019-03-25T01:16:14.405Z,49.70
2019-03-25T01:18:43.228Z,49.60
2019-03-25T01:21:12.091Z,50.20
2019-03-25T01:23:40.917Z,50.20
2019-03-25T01:26:09.777Z,50.40
2019-03-25T01:28:38.607Z,50.30
2019-03-25T01:31:07.466Z,51.20
2019-03-25T01:33:36.305Z,51.30
2019-03-25T01:36:05.104Z,51.10
2019-03-25T01:38:33.939Z,50.70
2019-03-25T01:41:02.805Z,50.80
2019-03-25T01:43:31.626Z,50.80
2019-03-25T01:46:00.486Z,51.10
2019-03-25T01:48:29.313Z,51.90
2019-03-25T01:50:58.129Z,53.20
2019-03-25T01:53:26.997Z,53.50
2019-03-25T01:55:55.821Z,53.80
2019-03-25T01:58:24.612Z,54.00
2019-03-25T02:00:53.427Z,54.20
2019-03-25T02:03:22.307Z,54.40
2019-03-25T02:05:51.051Z,54.20
2019-03-25T02:08:19.909Z,54.00
2019-03-25T02:10:48.756Z,54.50
2019-03-25T02:13:17.600Z,54.00
2019-03-25T02:15:46.429Z,53.80
2019-03-25T02:18:15.306Z,53.60
2019-03-25T02:20:44.124Z,54.20
2019-03-25T02:23:13.029Z,53.70
2019-03-25T02:25:41.905Z,53.30
2019-03-25T02:28:10.724Z,53.50
2019-03-25T02:30:39.581Z,53.50
2019-03-25T02:33:08.414Z,53.20
2019-03-25T02:35:37.276Z,53.80
2019-03-25T02:38:06.092Z,53.70
2019-03-25T02:40:34.939Z,54.00
2019-03-25T02:43:03.770Z,54.70
2019-03-25T02:45:32.621Z,54.10
2019-03-25T02:48:01.446Z,53.30
2019-03-25T02:50:30.324Z,52.90
2019-03-25T02:52:59.165Z,53.50
2019-03-25T02:55:40.849Z,54.00
2019-03-25T02:57:58.487Z,53.90
2019-03-25T03:00:39.360Z,53.30
2019-03-25T03:03:09.683Z,53.00
2019-03-25T03:05:38.521Z,53.90
2019-03-25T03:08:07.372Z,54.10
2019-03-25T03:10:36.225Z,53.60
2019-03-25T03:13:05.065Z,54.40
2019-03-25T03:15:33.876Z,54.70
2019-03-25T03:18:02.725Z,55.00
2019-03-25T03:20:31.564Z,55.00
2019-03-25T03:23:00.446Z,54.50
2019-03-25T03:25:29.254Z,54.00
2019-03-25T03:27:58.115Z,54.60
2019-03-25T03:30:26.930Z,54.90
2019-03-25T03:32:55.822Z,56.30
2019-03-25T03:35:24.675Z,57.60
2019-03-25T03:37:53.496Z,57.80
2019-03-25T03:40:22.360Z,57.20
2019-03-25T03:42:51.210Z,57.00
2019-03-25T03:45:20.070Z,56.70
2019-03-25T03:47:48.883Z,56.30
2019-03-25T03:50:25.817Z,57.10
2019-03-25T03:52:55.641Z,56.40
2019-03-25T03:55:24.998Z,56.80
2019-03-25T03:57:55.145Z,56.40
2019-03-25T04:00:29.128Z,56.10
2019-03-25T04:02:57.952Z,55.80
2019-03-25T04:05:26.791Z,55.70
2019-03-25T04:07:55.650Z,55.70
2019-03-25T04:10:24.482Z,56.50
2019-03-25T04:12:53.473Z,56.00
2019-03-25T04:15:49.138Z,55.90
2019-03-25T04:18:17.963Z,55.90
2019-03-25T04:20:46.822Z,55.30
2019-03-25T04:23:15.685Z,54.80
2019-03-25T04:25:44.511Z,54.40
2019-03-25T04:28:13.393Z,54.30
2019-03-25T04:30:42.219Z,54.30
2019-03-25T04:33:11.073Z,55.40
2019-03-25T04:35:39.902Z,56.10
2019-03-25T04:38:08.762Z,56.70
2019-03-25T04:40:37.591Z,56.10
2019-03-25T04:43:06.372Z,56.00
2019-03-25T04:45:35.140Z,56.50
2019-03-25T04:48:03.990Z,56.80
2019-03-25T04:50:32.804Z,56.90
2019-03-25T04:53:01.628Z,57.10
2019-03-25T04:55:30.489Z,58.20
2019-03-25T04:57:59.351Z,58.20
2019-03-25T05:00:35.764Z,58.00
2019-03-25T05:03:04.735Z,57.70
2019-03-25T05:05:35.917Z,57.30
2019-03-25T05:08:04.042Z,56.70
2019-03-25T05:10:32.895Z,56.50
2019-03-25T05:13:01.726Z,56.80
2019-03-25T05:15:30.578Z,57.40
2019-03-25T05:17:59.410Z,57.50
2019-03-25T05:20:28.277Z,57.40
2019-03-25T05:22:57.085Z,57.30
2019-03-25T05:25:25.895Z,57.70
2019-03-25T05:27:54.761Z,57.80
2019-03-25T05:30:23.582Z,57.90
2019-03-25T05:32:52.424Z,57.90
2019-03-25T05:35:21.258Z,57.90
2019-03-25T05:37:50.126Z,58.10
2019-03-25T05:40:18.938Z,57.60
2019-03-25T05:42:47.799Z,57.40
2019-03-25T05:45:16.650Z,57.00
2019-03-25T05:47:45.487Z,56.60
2019-03-25T05:50:14.463Z,55.40
2019-03-25T05:52:43.272Z,55.40
2019-03-25T05:55:12.120Z,53.90
2019-03-25T05:57:40.935Z,53.00
2019-03-25T06:00:10.224Z,52.60
2019-03-25T06:02:39.050Z,52.10
2019-03-25T06:05:07.907Z,50.40
2019-03-25T06:07:36.742Z,49.10
2019-03-25T06:10:07.351Z,48.00
2019-03-25T06:12:36.317Z,46.80
2019-03-25T06:15:07.204Z,46.70
2019-03-25T06:17:36.566Z,47.70
2019-03-25T06:20:08.434Z,49.00
2019-03-25T06:22:37.295Z,49.00
2019-03-25T06:25:07.747Z,47.30
2019-03-25T06:27:36.516Z,44.10
2019-03-25T06:30:08.215Z,42.60
2019-03-25T06:32:37.080Z,39.50
2019-03-25T06:35:09.113Z,38.40
2019-03-25T06:37:38.163Z,37.10
2019-03-25T06:40:08.538Z,35.20
2019-03-25T06:42:37.363Z,34.00
2019-03-25T06:45:09.285Z,33.10
2019-03-25T06:47:38.100Z,32.10
2019-03-25T06:50:08.056Z,31.70
2019-03-25T06:52:36.886Z,30.80
2019-03-25T06:55:08.054Z,30.90
2019-03-25T06:57:38.630Z,30.00
2019-03-25T07:00:09.105Z,29.90
2019-03-25T07:02:37.949Z,28.80
2019-03-25T07:05:07.858Z,27.90
2019-03-25T07:07:36.717Z,27.90
2019-03-25T07:10:07.736Z,27.40
2019-03-25T07:12:37.886Z,26.70
2019-03-25T07:15:08.272Z,26.90
2019-03-25T07:17:37.126Z,26.70
2019-03-25T07:20:07.763Z,26.80
2019-03-25T07:22:36.913Z,25.50
2019-03-25T07:25:06.939Z,24.80
2019-03-25T07:27:36.959Z,24.40
2019-03-25T07:30:08.021Z,24.10
2019-03-25T07:32:36.884Z,24.10
2019-03-25T07:35:07.125Z,23.20
2019-03-25T07:37:35.989Z,23.20
2019-03-25T07:40:08.000Z,23.30
2019-03-25T07:42:36.848Z,22.60
2019-03-25T07:45:10.599Z,22.80
2019-03-25T07:47:39.454Z,22.80
2019-03-25T07:50:08.685Z,21.80
2019-03-25T07:52:37.554Z,21.30
2019-03-25T07:55:07.468Z,21.60
2019-03-25T07:57:47.293Z,21.50
2019-03-25T08:00:13.778Z,21.40
2019-03-25T08:02:40.164Z,21.10
2019-03-25T08:05:09.270Z,21.00
2019-03-25T08:07:38.189Z,20.50
2019-03-25T08:10:08.240Z,20.20
2019-03-25T08:12:37.083Z,20.70
2019-03-25T08:15:09.006Z,20.90
2019-03-25T08:17:37.802Z,20.10
2019-03-25T08:20:08.452Z,19.40
2019-03-25T08:22:37.280Z,19.10
2019-03-25T08:25:06.973Z,19.10
2019-03-25T08:27:35.814Z,18.70
2019-03-25T08:30:06.909Z,18.90
2019-03-25T08:32:35.846Z,19.50
2019-03-25T08:35:06.420Z,18.80
2019-03-25T08:37:35.293Z,19.90
2019-03-25T08:40:07.491Z,19.00
2019-03-25T08:42:36.371Z,19.30
2019-03-25T08:45:06.311Z,18.50
2019-03-25T08:47:35.179Z,18.20
2019-03-25T08:50:07.753Z,19.30
2019-03-25T08:52:36.649Z,19.00
2019-03-25T08:55:06.782Z,19.00
2019-03-25T08:57:35.615Z,19.20
2019-03-25T09:00:06.492Z,18.90
2019-03-25T09:02:35.231Z,18.70
2019-03-25T09:05:05.090Z,18.40
2019-03-25T09:07:33.928Z,18.70
2019-03-25T09:10:03.089Z,18.50
2019-03-25T09:12:31.910Z,18.50
2019-03-25T09:15:00.765Z,18.00
2019-03-25T09:17:29.597Z,18.00
2019-03-25T09:19:58.452Z,18.30
2019-03-25T09:22:27.281Z,17.50
2019-03-25T09:24:56.198Z,17.80
2019-03-25T09:27:24.999Z,17.20
2019-03-25T09:29:53.869Z,17.70
2019-03-25T09:32:22.751Z,17.90
2019-03-25T09:34:51.605Z,18.00
2019-03-25T09:37:20.438Z,17.90
2019-03-25T09:39:49.311Z,17.80
2019-03-25T09:42:18.134Z,17.30
2019-03-25T09:44:47.004Z,17.30
2019-03-25T09:47:15.833Z,17.30
2019-03-25T09:49:44.686Z,17.50
2019-03-25T09:52:13.529Z,16.30
2019-03-25T09:54:42.413Z,16.20
2019-03-25T09:57:11.224Z,16.00
2019-03-25T09:59:40.092Z,16.00
2019-03-25T10:02:08.908Z,16.20
2019-03-25T10:04:37.755Z,17.00
2019-03-25T10:07:06.591Z,16.70
2019-03-25T10:09:35.436Z,16.50
2019-03-25T10:12:04.269Z,16.50
2019-03-25T10:14:33.134Z,16.20
2019-03-25T10:17:02.008Z,16.70
2019-03-25T10:19:30.841Z,16.70
2019-03-25T10:21:59.708Z,16.70
2019-03-25T10:24:28.589Z,16.60
2019-03-25T10:26:57.442Z,16.40
2019-03-25T10:29:26.273Z,17.10
2019-03-25T10:31:55.133Z,16.70
2019-03-25T10:34:23.975Z,16.20
2019-03-25T10:36:52.847Z,17.10
2019-03-25T10:39:21.688Z,16.90
2019-03-25T10:41:50.542Z,16.60
2019-03-25T10:44:19.369Z,16.90
2019-03-25T10:46:48.229Z,16.10
2019-03-25T10:49:17.050Z,15.90
2019-03-25T10:51:45.915Z,15.90
2019-03-25T10:54:14.751Z,16.30
2019-03-25T10:56:49.074Z,16.50
2019-03-25T10:59:14.125Z,15.90
2019-03-25T11:01:42.950Z,15.80
2019-03-25T11:04:11.809Z,16.10
2019-03-25T11:06:40.633Z,16.00
2019-03-25T11:09:09.498Z,15.70
2019-03-25T11:11:38.265Z,16.70
2019-03-25T11:14:07.139Z,16.30
2019-03-25T11:16:36.152Z,17.50
2019-03-25T11:19:05.000Z,16.10
2019-03-25T11:21:34.235Z,15.70
2019-03-25T11:24:03.089Z,16.00
2019-03-25T11:26:31.918Z,16.30
2019-03-25T11:29:04.634Z,17.00
2019-03-25T11:31:31.267Z,17.90
2019-03-25T11:34:00.131Z,17.10
2019-03-25T11:36:28.901Z,16.90
2019-03-25T11:38:57.718Z,16.40
2019-03-25T11:41:26.587Z,16.00
2019-03-25T11:43:55.409Z,16.40
2019-03-25T11:46:24.221Z,17.10
2019-03-25T11:48:53.037Z,16.30
2019-03-25T11:51:21.909Z,16.80
2019-03-25T11:53:50.735Z,17.10
2019-03-25T11:56:19.598Z,17.20
2019-03-25T11:58:48.431Z,18.00
2019-03-25T12:01:17.293Z,18.60
2019-03-25T12:03:46.137Z,18.80
2019-03-25T12:06:14.992Z,19.90
2019-03-25T12:08:43.808Z,20.50
2019-03-25T12:11:12.683Z,21.80
2019-03-25T12:13:41.509Z,22.00
2019-03-25T12:16:10.359Z,23.00
2019-03-25T12:18:39.231Z,22.40
2019-03-25T12:21:08.065Z,23.10
2019-03-25T12:23:36.921Z,23.40
2019-03-25T12:26:05.750Z,24.30
2019-03-25T12:28:34.622Z,24.70
2019-03-25T12:31:03.446Z,23.60
2019-03-25T12:33:32.296Z,24.00
2019-03-25T12:36:01.113Z,23.60
2019-03-25T12:38:29.986Z,23.70
2019-03-25T12:40:58.824Z,22.70
2019-03-25T12:43:27.683Z,22.70
2019-03-25T12:45:56.528Z,23.70
2019-03-25T12:48:25.378Z,23.30
2019-03-25T12:50:54.148Z,23.50
2019-03-25T12:53:23.027Z,24.10
2019-03-25T12:55:51.872Z,23.80
2019-03-25T12:58:20.859Z,23.80
2019-03-25T13:00:49.717Z,22.40
2019-03-25T13:03:18.550Z,22.80
2019-03-25T13:05:47.403Z,22.70
2019-03-25T13:08:16.156Z,22.50
2019-03-25T13:10:45.015Z,22.50
2019-03-25T13:13:13.850Z,22.00
2019-03-25T13:15:42.700Z,19.80
2019-03-25T13:18:11.539Z,20.00
2019-03-25T13:20:40.397Z,19.90
2019-03-25T13:23:09.234Z,20.20
2019-03-25T13:25:39.526Z,20.20
2019-03-25T13:28:08.541Z,20.20
2019-03-25T13:30:37.414Z,20.20
2019-03-25T13:33:06.264Z,20.10
2019-03-25T13:35:35.138Z,20.20
2019-03-25T13:38:04.053Z,20.50
2019-03-25T13:40:32.922Z,20.70
2019-03-25T13:43:01.766Z,20.90
2019-03-25T13:45:30.646Z,20.60
2019-03-25T13:47:59.550Z,21.10
2019-03-25T13:50:28.385Z,21.10
2019-03-25T13:52:57.283Z,22.30
2019-03-25T13:55:26.804Z,21.70
2019-03-25T13:57:56.719Z,20.30
2019-03-25T14:00:38.940Z,20.80
2019-03-25T14:03:06.941Z,21.70
2019-03-25T14:05:35.776Z,23.00
2019-03-25T14:08:04.640Z,22.60
2019-03-25T14:10:33.563Z,22.70
2019-03-25T14:13:02.367Z,22.80
2019-03-25T14:15:31.261Z,23.00
2019-03-25T14:18:00.126Z,22.60
2019-03-25T14:20:29.017Z,22.60
2019-03-25T14:22:57.832Z,23.10
2019-03-25T14:25:26.747Z,23.20
2019-03-25T14:27:55.575Z,23.40
2019-03-25T14:30:24.464Z,23.10
2019-03-25T14:32:53.317Z,23.20
2019-03-25T14:35:22.238Z,23.00
2019-03-25T14:37:51.119Z,22.90
2019-03-25T14:40:19.978Z,23.50
2019-03-25T14:42:48.845Z,23.40
2019-03-25T14:45:26.132Z,23.10
2019-03-25T14:47:48.249Z,23.60
2019-03-25T14:50:17.138Z,23.40
2019-03-25T14:52:46.042Z,23.20
2019-03-25T14:55:14.990Z,23.70
2019-03-25T14:57:43.856Z,24.10
2019-03-25T15:00:13.535Z,23.80
2019-03-25T15:02:42.353Z,23.70
2019-03-25T15:05:11.962Z,24.10
2019-03-25T15:07:40.879Z,24.40
2019-03-25T15:10:10.002Z,23.20
2019-03-25T15:12:38.858Z,23.60
2019-03-25T15:15:08.928Z,24.60
2019-03-25T15:17:37.842Z,25.10
2019-03-25T15:20:10.065Z,25.00
2019-03-25T15:22:39.163Z,25.10
2019-03-25T15:25:09.534Z,25.70
2019-03-25T15:27:38.371Z,25.50
2019-03-25T15:30:11.792Z,26.00
2019-03-25T15:32:40.597Z,25.80
2019-03-25T15:35:09.841Z,25.90
2019-03-25T15:37:38.716Z,26.40
2019-03-25T15:40:09.595Z,26.20
2019-03-25T15:42:38.511Z,26.00
2019-03-25T15:45:09.472Z,26.10
2019-03-25T15:47:39.173Z,26.20
2019-03-25T15:50:10.138Z,26.10
2019-03-25T15:52:39.462Z,26.10
2019-03-25T15:55:09.095Z,27.10
2019-03-25T15:57:39.701Z,26.80
2019-03-25T16:00:14.732Z,27.20
2019-03-25T16:02:43.564Z,27.30
2019-03-25T16:05:13.057Z,26.80
2019-03-25T16:07:41.953Z,27.20
2019-03-25T16:10:11.439Z,26.90
2019-03-25T16:12:40.768Z,26.70
2019-03-25T16:15:10.621Z,27.10
2019-03-25T16:17:39.477Z,27.50
2019-03-25T16:20:11.831Z,27.90
2019-03-25T16:22:40.738Z,27.70
2019-03-25T16:25:11.025Z,28.20
2019-03-25T16:27:39.896Z,28.70
2019-03-25T16:30:08.915Z,28.90
2019-03-25T16:32:37.774Z,29.10
2019-03-25T16:35:07.194Z,29.80
2019-03-25T16:37:36.058Z,30.70
2019-03-25T16:40:07.327Z,31.20
2019-03-25T16:42:36.237Z,30.70
2019-03-25T16:45:05.581Z,32.50
2019-03-25T16:47:34.451Z,30.70
2019-03-25T16:50:04.197Z,29.80
2019-03-25T16:52:33.068Z,30.60
2019-03-25T16:55:01.910Z,31.20
2019-03-25T16:57:30.755Z,32.00
2019-03-25T16:59:59.591Z,32.10
2019-03-25T17:02:28.457Z,32.30
2019-03-25T17:04:57.316Z,32.00
2019-03-25T17:07:26.155Z,31.80
2019-03-25T17:09:55.014Z,32.10
2019-03-25T17:12:23.837Z,32.50
2019-03-25T17:14:52.634Z,33.20
2019-03-25T17:17:21.476Z,33.30
2019-03-25T17:19:50.335Z,33.40
2019-03-25T17:22:19.171Z,33.10
2019-03-25T17:24:48.083Z,32.90
2019-03-25T17:27:17.860Z,33.00
2019-03-25T17:29:46.756Z,32.80
2019-03-25T17:32:15.617Z,33.00
2019-03-25T17:34:44.470Z,33.40
2019-03-25T17:37:13.326Z,33.50
2019-03-25T17:39:42.236Z,32.80
2019-03-25T17:42:11.093Z,33.00
2019-03-25T17:44:39.930Z,33.40
2019-03-25T17:47:08.781Z,34.20
2019-03-25T17:49:37.642Z,33.50
2019-03-25T17:52:06.539Z,33.50
2019-03-25T17:54:35.367Z,33.80
2019-03-25T17:57:04.278Z,33.40
2019-03-25T17:59:33.080Z,33.80
2019-03-25T18:02:01.946Z,33.60
2019-03-25T18:04:30.765Z,33.60
2019-03-25T18:06:59.644Z,33.80
2019-03-25T18:09:28.526Z,34.40
2019-03-25T18:11:57.341Z,34.00
2019-03-25T18:14:26.205Z,34.00
2019-03-25T18:16:55.023Z,34.30
2019-03-25T18:19:23.944Z,34.50
2019-03-25T18:21:52.787Z,34.70
2019-03-25T18:24:21.690Z,35.00
2019-03-25T18:26:50.515Z,35.30
2019-03-25T18:29:19.412Z,35.30
2019-03-25T18:31:48.238Z,35.30
2019-03-25T18:34:17.095Z,35.10
2019-03-25T18:36:45.922Z,34.40
2019-03-25T18:39:14.789Z,33.80
2019-03-25T18:41:43.613Z,33.20
2019-03-25T18:44:12.492Z,33.30
2019-03-25T18:46:41.299Z,33.30
2019-03-25T18:49:10.208Z,32.70
2019-03-25T18:51:39.054Z,32.80
2019-03-25T18:54:07.876Z,32.90
2019-03-25T18:56:39.257Z,32.60
2019-03-25T18:59:07.219Z,32.50
2019-03-25T19:01:36.078Z,32.10
2019-03-25T19:04:04.931Z,30.60
2019-03-25T19:06:33.814Z,29.80
2019-03-25T19:09:02.636Z,29.20
2019-03-25T19:11:31.671Z,28.60
2019-03-25T19:14:00.665Z,28.60
2019-03-25T19:16:29.507Z,28.70
2019-03-25T19:18:58.386Z,28.60
2019-03-25T19:21:27.216Z,28.60
2019-03-25T19:23:56.088Z,26.70
2019-03-25T19:26:24.954Z,23.90
2019-03-25T19:28:53.760Z,23.00
2019-03-25T19:31:22.635Z,23.10
2019-03-25T19:33:51.431Z,23.40
2019-03-25T19:36:20.333Z,23.70
2019-03-25T19:38:49.214Z,23.70
2019-03-25T19:41:27.147Z,23.70
2019-03-25T19:43:48.584Z,23.70
2019-03-25T19:46:17.437Z,24.10
2019-03-25T19:48:46.292Z,23.90
2019-03-25T19:51:15.110Z,23.70
2019-03-25T19:53:44.012Z,23.20
2019-03-25T19:56:12.812Z,23.30
2019-03-25T19:58:41.606Z,23.20
2019-03-25T20:01:10.430Z,23.10
2019-03-25T20:03:39.316Z,22.70
2019-03-25T20:06:08.152Z,22.30
2019-03-25T20:08:37.110Z,21.80
2019-03-25T20:11:05.964Z,21.80
2019-03-25T20:13:34.866Z,21.80
2019-03-25T20:16:03.730Z,22.20
2019-03-25T20:18:32.624Z,22.60
2019-03-25T20:21:01.441Z,22.40
2019-03-25T20:23:30.330Z,22.60
2019-03-25T20:25:59.090Z,22.60
2019-03-25T20:28:28.168Z,22.90
2019-03-25T20:30:56.924Z,22.50
2019-03-25T20:33:25.802Z,21.70
2019-03-25T20:35:54.626Z,21.50
2019-03-25T20:38:23.471Z,20.50
2019-03-25T20:40:52.352Z,20.60
2019-03-25T20:43:21.193Z,20.40
2019-03-25T20:45:49.996Z,20.10
2019-03-25T20:48:18.792Z,20.50
2019-03-25T20:50:47.965Z,20.10
2019-03-25T20:53:16.824Z,19.70
2019-03-25T20:55:45.740Z,19.30
2019-03-25T20:58:14.581Z,19.20
2019-03-25T21:00:51.293Z,19.70
2019-03-25T21:03:20.283Z,18.80
2019-03-25T21:05:49.191Z,18.90
2019-03-25T21:08:17.961Z,18.60
2019-03-25T21:10:46.840Z,18.80
2019-03-25T21:13:15.671Z,17.60
2019-03-25T21:15:44.441Z,16.80
2019-03-25T21:18:13.260Z,17.20
2019-03-25T21:20:42.119Z,17.00
2019-03-25T21:23:10.951Z,15.60
2019-03-25T21:25:39.857Z,16.40
2019-03-25T21:28:08.725Z,16.40
2019-03-25T21:30:47.347Z,17.50
2019-03-25T21:33:08.028Z,17.70
2019-03-25T21:35:37.083Z,16.60
2019-03-25T21:38:05.973Z,17.50
2019-03-25T21:40:35.567Z,17.70
2019-03-25T21:43:04.518Z,17.70
2019-03-25T21:45:33.385Z,19.70
2019-03-25T21:48:02.221Z,16.00
2019-03-25T21:50:31.054Z,15.40
2019-03-25T21:52:59.915Z,15.20
2019-03-25T21:55:28.761Z,17.10
2019-03-25T21:57:57.636Z,19.70
2019-03-25T22:00:26.458Z,20.80
2019-03-25T22:02:55.280Z,21.80
2019-03-25T22:05:24.133Z,22.30
2019-03-25T22:07:52.972Z,23.50
2019-03-25T22:10:21.834Z,24.70
2019-03-25T22:12:50.676Z,25.80
2019-03-25T22:15:19.507Z,27.10
2019-03-25T22:17:48.382Z,28.00
2019-03-25T22:20:17.201Z,28.50
2019-03-25T22:22:46.042Z,28.90
2019-03-25T22:25:14.876Z,28.70
2019-03-25T22:27:43.721Z,28.30
2019-03-25T22:30:12.849Z,28.60
2019-03-25T22:32:41.692Z,28.90
2019-03-25T22:35:10.530Z,27.30
2019-03-25T22:37:39.382Z,25.40
2019-03-25T22:40:17.753Z,25.40
2019-03-25T22:42:46.614Z,26.70
2019-03-25T22:45:18.369Z,27.30
2019-03-25T22:47:47.223Z,30.60
2019-03-25T22:50:27.918Z,31.00
2019-03-25T22:52:57.399Z,31.40
2019-03-25T22:55:26.253Z,33.20
2019-03-25T22:57:55.081Z,35.20
2019-03-25T23:00:25.592Z,35.50
2019-03-25T23:02:54.404Z,36.20
2019-03-25T23:05:23.277Z,36.60
2019-03-25T23:07:52.084Z,37.90
2019-03-25T23:10:20.938Z,39.50
2019-03-25T23:12:49.769Z,40.20
2019-03-25T23:15:18.628Z,41.40
2019-03-25T23:17:47.450Z,40.60
2019-03-25T23:20:16.327Z,42.50
2019-03-25T23:22:45.146Z,42.30
2019-03-25T23:25:14.018Z,44.10
2019-03-25T23:27:42.830Z,46.00
2019-03-25T23:30:12.479Z,46.20
2019-03-25T23:32:41.319Z,46.00
2019-03-25T23:35:10.183Z,43.90
2019-03-25T23:37:39.042Z,43.40
2019-03-25T23:40:07.977Z,48.60
2019-03-25T23:42:36.829Z,54.40
2019-03-25T23:45:06.941Z,57.10
2019-03-25T23:47:35.789Z,54.70
2019-03-25T23:50:06.313Z,52.30
2019-03-25T23:52:35.166Z,56.20
2019-03-25T23:55:04.908Z,59.00
2019-03-25T23:57:33.766Z,60.20
